createdAt,value
2018-07-22T00:00:35.561Z,81.62
2018-07-22T00:01:35.558Z,82.43
2018-07-22T00:02:35.421Z,82.91
2018-07-22T00:03:35.589Z,82.43
2018-07-22T00:04:35.683Z,82.75
2018-07-22T00:05:35.458Z,82.93
2018-07-22T00:06:35.568Z,82.89
2018-07-22T00:07:35.511Z,82.97
2018-07-22T00:08:35.586Z,83.06
2018-07-22T00:09:35.529Z,82.67
2018-07-22T00:10:35.506Z,82.55
2018-07-22T00:11:35.438Z,82.56
2018-07-22T00:12:35.460Z,83.18
2018-07-22T00:13:35.497Z,82.69
2018-07-22T00:14:35.453Z,82.58
2018-07-22T00:15:35.478Z,82.7
2018-07-22T00:16:35.449Z,83.02
2018-07-22T00:17:35.476Z,83.2
2018-07-22T00:18:35.479Z,83.44
2018-07-22T00:19:35.636Z,83.34
2018-07-22T00:20:35.462Z,83.4
2018-07-22T00:21:35.506Z,83.17
2018-07-22T00:22:35.459Z,83.33
2018-07-22T00:23:35.458Z,83.31
2018-07-22T00:24:35.689Z,83.24
2018-07-22T00:25:35.545Z,83.45
2018-07-22T00:26:35.518Z,83.21
2018-07-22T00:27:35.536Z,83.24
2018-07-22T00:28:35.489Z,83.14
2018-07-22T00:29:35.486Z,82.98
2018-07-22T00:30:35.506Z,83.13
2018-07-22T00:31:35.530Z,83.72
2018-07-22T00:32:35.484Z,83.47
2018-07-22T00:33:35.484Z,83.14
2018-07-22T00:34:35.516Z,82.99
2018-07-22T00:35:35.545Z,82.63
2018-07-22T00:36:35.503Z,82.78
2018-07-22T00:37:35.526Z,83.29
2018-07-22T00:38:35.492Z,82.92
2018-07-22T00:39:35.523Z,82.96
2018-07-22T00:40:35.614Z,83
2018-07-22T00:41:35.488Z,83.56
2018-07-22T00:42:35.580Z,83.45
2018-07-22T00:43:35.500Z,83
2018-07-22T00:44:35.510Z,83.29
2018-07-22T00:45:35.522Z,83.09
2018-07-22T00:46:35.524Z,83.29
2018-07-22T00:47:35.470Z,83.88
2018-07-22T00:48:35.481Z,83.86
2018-07-22T00:49:35.487Z,84
2018-07-22T00:50:35.458Z,83.82
2018-07-22T00:51:35.468Z,83.95
2018-07-22T00:52:35.499Z,84.42
2018-07-22T00:53:35.515Z,84.2
2018-07-22T00:54:35.472Z,84.54
2018-07-22T00:55:35.485Z,84.21
2018-07-22T00:56:35.523Z,83.78
2018-07-22T00:57:35.489Z,84.25
2018-07-22T00:58:35.484Z,84.21
2018-07-22T00:59:35.507Z,84.35
2018-07-22T01:00:35.520Z,84.28
2018-07-22T01:01:35.526Z,84.17
2018-07-22T01:02:35.500Z,84.28
2018-07-22T01:03:35.475Z,84.29
2018-07-22T01:04:35.505Z,84.42
2018-07-22T01:05:35.494Z,84.32
2018-07-22T01:06:35.519Z,83.87
2018-07-22T01:07:35.522Z,84.1
2018-07-22T01:08:35.482Z,83.79
2018-07-22T01:09:35.565Z,83.62
2018-07-22T01:10:35.542Z,84.15
2018-07-22T01:11:35.516Z,84.2
2018-07-22T01:12:35.696Z,85.02
2018-07-22T01:13:35.549Z,85.29
2018-07-22T01:14:35.535Z,84.92
2018-07-22T01:15:35.633Z,84.85
2018-07-22T01:16:35.524Z,84.6
2018-07-22T01:17:35.517Z,84.68
2018-07-22T01:18:35.510Z,84.89
2018-07-22T01:19:35.529Z,84.43
2018-07-22T01:20:35.725Z,84.9
2018-07-22T01:21:35.497Z,85.31
2018-07-22T01:22:35.511Z,85.13
2018-07-22T01:23:35.527Z,85.12
2018-07-22T01:24:35.573Z,84.6
2018-07-22T01:25:35.536Z,84.68
2018-07-22T01:26:35.498Z,84.27
2018-07-22T01:27:35.714Z,84.87
2018-07-22T01:28:35.508Z,84.73
2018-07-22T01:29:35.787Z,85.04
2018-07-22T01:30:35.607Z,85.16
2018-07-22T01:31:35.576Z,85.18
2018-07-22T01:32:35.529Z,85.26
2018-07-22T01:33:35.515Z,84.76
2018-07-22T01:34:35.498Z,84.73
2018-07-22T01:35:35.530Z,84.68
2018-07-22T01:36:35.533Z,85.12
2018-07-22T01:37:35.768Z,85.28
2018-07-22T01:38:35.498Z,85.24
2018-07-22T01:39:35.618Z,85.17
2018-07-22T01:40:35.573Z,84.89
2018-07-22T01:41:35.567Z,84.8
2018-07-22T01:42:35.524Z,84.94
2018-07-22T01:43:35.654Z,84.54
2018-07-22T01:44:35.517Z,84.79
2018-07-22T01:45:35.543Z,84.29
2018-07-22T01:46:35.526Z,84.32
2018-07-22T01:47:35.508Z,84.45
2018-07-22T01:48:35.514Z,84.46
2018-07-22T01:49:35.651Z,84.39
2018-07-22T01:50:35.549Z,84.4
2018-07-22T01:51:36.073Z,84.5
2018-07-22T01:52:35.581Z,84.27
2018-07-22T01:53:35.523Z,84.18
2018-07-22T01:54:35.554Z,84.23
2018-07-22T01:55:35.592Z,84.08
2018-07-22T01:56:35.566Z,85.24
2018-07-22T01:57:35.521Z,85.02
2018-07-22T01:58:35.543Z,85.72
2018-07-22T01:59:35.543Z,85.61
2018-07-22T02:00:35.520Z,85.71
2018-07-22T02:01:35.868Z,85.69
2018-07-22T02:02:35.535Z,85.39
2018-07-22T02:03:35.560Z,85.45
2018-07-22T02:04:35.502Z,85.5
2018-07-22T02:05:35.550Z,85.53
2018-07-22T02:06:35.539Z,85.52
2018-07-22T02:07:35.532Z,85.58
2018-07-22T02:08:35.553Z,85.39
2018-07-22T02:09:35.527Z,85.4
2018-07-22T02:10:35.556Z,85.41
2018-07-22T02:11:35.556Z,85.62
2018-07-22T02:12:35.597Z,85.47
2018-07-22T02:13:35.548Z,85.59
2018-07-22T02:14:35.544Z,85.44
2018-07-22T02:15:35.537Z,85.61
2018-07-22T02:16:35.554Z,85.73
2018-07-22T02:17:35.551Z,85.67
2018-07-22T02:18:35.539Z,85.73
2018-07-22T02:19:35.546Z,85.93
2018-07-22T02:20:35.624Z,86.22
2018-07-22T02:21:35.656Z,86.08
2018-07-22T02:22:35.568Z,86.14
2018-07-22T02:23:35.615Z,85.99
2018-07-22T02:24:35.532Z,85.43
2018-07-22T02:25:35.578Z,85.15
2018-07-22T02:26:35.573Z,85.25
2018-07-22T02:27:35.623Z,85.29
2018-07-22T02:28:35.720Z,85.41
2018-07-22T02:29:35.577Z,85.13
2018-07-22T02:30:35.635Z,85.41
2018-07-22T02:31:35.556Z,85.49
2018-07-22T02:32:35.614Z,85.73
2018-07-22T02:33:35.648Z,85.42
2018-07-22T02:34:35.575Z,85.35
2018-07-22T02:35:35.545Z,85.26
2018-07-22T02:36:35.618Z,85
2018-07-22T02:37:35.568Z,84.96
2018-07-22T02:38:35.579Z,84.9
2018-07-22T02:39:35.683Z,84.72
2018-07-22T02:40:35.549Z,84.86
2018-07-22T02:41:35.556Z,84.57
2018-07-22T02:42:35.571Z,84.39
2018-07-22T02:43:35.749Z,84.25
2018-07-22T02:44:35.620Z,84.36
2018-07-22T02:45:35.630Z,84.43
2018-07-22T02:46:35.664Z,84.72
2018-07-22T02:47:35.566Z,84.55
2018-07-22T02:48:35.561Z,84.42
2018-07-22T02:49:35.656Z,84.74
2018-07-22T02:50:35.632Z,85.42
2018-07-22T02:51:36.012Z,85.89
2018-07-22T02:52:35.668Z,85.25
2018-07-22T02:53:35.717Z,85.52
2018-07-22T02:54:35.896Z,85.32
2018-07-22T02:55:35.694Z,85.33
2018-07-22T02:56:35.590Z,85.27
2018-07-22T02:57:35.624Z,85.7
2018-07-22T02:58:35.671Z,85.2
2018-07-22T02:59:35.709Z,85.09
2018-07-22T03:00:35.564Z,85.28
2018-07-22T03:01:35.609Z,84.98
2018-07-22T03:02:35.558Z,85.18
2018-07-22T03:03:35.574Z,86
2018-07-22T03:04:35.580Z,85.96
2018-07-22T03:05:35.596Z,85.64
2018-07-22T03:06:35.694Z,86.21
2018-07-22T03:07:35.612Z,86.74
2018-07-22T03:08:35.617Z,85.58
2018-07-22T03:09:35.605Z,85.65
2018-07-22T03:10:35.598Z,85.38
2018-07-22T03:11:35.578Z,85.21
2018-07-22T03:12:35.675Z,85.31
2018-07-22T03:13:35.581Z,85.15
2018-07-22T03:14:35.767Z,85.17
2018-07-22T03:15:35.638Z,85.94
2018-07-22T03:16:35.602Z,85.69
2018-07-22T03:17:35.596Z,86.11
2018-07-22T03:18:35.606Z,86.86
2018-07-22T03:19:35.685Z,86.81
2018-07-22T03:20:35.576Z,86.1
2018-07-22T03:21:35.626Z,85.58
2018-07-22T03:22:35.710Z,85.75
2018-07-22T03:23:35.653Z,85.65
2018-07-22T03:24:35.630Z,85.55
2018-07-22T03:25:35.624Z,85.56
2018-07-22T03:26:35.640Z,85.79
2018-07-22T03:27:35.628Z,85.49
2018-07-22T03:28:35.658Z,85.15
2018-07-22T03:29:35.650Z,85.24
2018-07-22T03:30:35.638Z,85.19
2018-07-22T03:31:35.731Z,85.47
2018-07-22T03:32:35.632Z,85.52
2018-07-22T03:33:35.663Z,85.24
2018-07-22T03:34:35.621Z,85.05
2018-07-22T03:35:35.790Z,85.42
2018-07-22T03:36:35.637Z,84.83
2018-07-22T03:37:35.655Z,85.01
2018-07-22T03:38:35.704Z,85.1
2018-07-22T03:39:35.691Z,85.47
2018-07-22T03:40:35.614Z,85.65
2018-07-22T03:41:35.612Z,86.09
2018-07-22T03:42:35.620Z,85.99
2018-07-22T03:43:35.651Z,86.2
2018-07-22T03:44:35.603Z,86.62
2018-07-22T03:45:35.723Z,86.34
2018-07-22T03:46:35.660Z,86.16
2018-07-22T03:47:35.778Z,86.2
2018-07-22T03:48:35.639Z,86.72
2018-07-22T03:49:35.740Z,86.6
2018-07-22T03:50:35.672Z,86.03
2018-07-22T03:51:35.689Z,86.43
2018-07-22T03:52:35.619Z,86.03
2018-07-22T03:53:35.624Z,87.03
2018-07-22T03:54:35.722Z,87.17
2018-07-22T03:55:35.620Z,87.23
2018-07-22T03:56:35.773Z,86.68
2018-07-22T03:57:35.711Z,86.23
2018-07-22T03:58:35.626Z,86.02
2018-07-22T03:59:35.599Z,85.81
2018-07-22T04:00:35.640Z,85.82
2018-07-22T04:01:35.645Z,86.03
2018-07-22T04:02:35.657Z,85.81
2018-07-22T04:03:35.688Z,85.98
2018-07-22T04:04:35.627Z,85.78
2018-07-22T04:05:35.603Z,86.51
2018-07-22T04:06:35.801Z,86.72
2018-07-22T04:07:35.792Z,86.11
2018-07-22T04:08:35.667Z,85.84
2018-07-22T04:09:35.678Z,85.62
2018-07-22T04:10:35.830Z,85.51
2018-07-22T04:11:35.642Z,85.49
2018-07-22T04:12:35.788Z,85.24
2018-07-22T04:13:35.643Z,85.25
2018-07-22T04:14:35.664Z,85.28
2018-07-22T04:15:35.824Z,85.58
2018-07-22T04:16:35.666Z,85.43
2018-07-22T04:17:35.629Z,85.57
2018-07-22T04:18:35.605Z,85.6
2018-07-22T04:19:35.681Z,85.55
2018-07-22T04:20:35.622Z,85.02
2018-07-22T04:21:35.686Z,85.57
2018-07-22T04:22:35.841Z,85.65
2018-07-22T04:23:35.645Z,85.48
2018-07-22T04:24:35.630Z,85.3
2018-07-22T04:25:35.750Z,85.17
2018-07-22T04:26:35.759Z,85.18
2018-07-22T04:27:35.794Z,85.2
2018-07-22T04:28:35.709Z,85
2018-07-22T04:29:35.742Z,85.25
2018-07-22T04:30:35.614Z,85.14
2018-07-22T04:31:35.756Z,85.18
2018-07-22T04:32:35.650Z,85.91
2018-07-22T04:33:35.625Z,85.98
2018-07-22T04:34:35.653Z,85.73
2018-07-22T04:35:35.680Z,85.48
2018-07-22T04:36:35.657Z,85.4
2018-07-22T04:37:35.660Z,86
2018-07-22T04:38:35.715Z,85.6
2018-07-22T04:39:35.691Z,85.96
2018-07-22T04:40:36.362Z,86.16
2018-07-22T04:41:35.665Z,85.58
2018-07-22T04:42:35.647Z,86.32
2018-07-22T04:43:35.631Z,86.01
2018-07-22T04:44:35.624Z,85.74
2018-07-22T04:45:35.669Z,85.93
2018-07-22T04:46:35.637Z,85.89
2018-07-22T04:47:35.652Z,85.88
2018-07-22T04:48:35.670Z,86.45
2018-07-22T04:49:35.645Z,86.08
2018-07-22T04:50:35.683Z,86.15
2018-07-22T04:51:35.800Z,86.76
2018-07-22T04:52:35.625Z,86.97
2018-07-22T04:53:36.034Z,86.98
2018-07-22T04:54:35.699Z,86.82
2018-07-22T04:55:35.682Z,87.21
2018-07-22T04:56:35.643Z,87.25
2018-07-22T04:57:35.699Z,86.93
2018-07-22T04:58:35.679Z,86.43
2018-07-22T04:59:35.720Z,86.11
2018-07-22T05:00:35.654Z,85.97
2018-07-22T05:01:35.697Z,85.86
2018-07-22T05:02:35.669Z,85.71
2018-07-22T05:03:35.653Z,85.73
2018-07-22T05:04:35.653Z,85.62
2018-07-22T05:05:35.822Z,85.47
2018-07-22T05:06:35.663Z,85.43
2018-07-22T05:07:35.637Z,85.77
2018-07-22T05:08:35.836Z,85.79
2018-07-22T05:09:35.714Z,85.31
2018-07-22T05:10:35.699Z,85.17
2018-07-22T05:11:35.697Z,85.44
2018-07-22T05:12:35.698Z,85.33
2018-07-22T05:13:35.650Z,85.55
2018-07-22T05:14:35.669Z,86.07
2018-07-22T05:15:35.754Z,85.93
2018-07-22T05:16:35.628Z,85.41
2018-07-22T05:17:35.947Z,85.26
2018-07-22T05:18:35.841Z,85.42
2018-07-22T05:19:35.712Z,85.4
2018-07-22T05:20:35.775Z,85.42
2018-07-22T05:21:35.662Z,85.36
2018-07-22T05:22:36.240Z,85.27
2018-07-22T05:23:35.749Z,85.88
2018-07-22T05:24:35.688Z,85.71
2018-07-22T05:25:35.698Z,85.43
2018-07-22T05:26:35.772Z,85.61
2018-07-22T05:27:35.769Z,85.32
2018-07-22T05:28:35.812Z,85.46
2018-07-22T05:29:35.679Z,86.16
2018-07-22T05:30:35.875Z,85.91
2018-07-22T05:31:35.651Z,86.26
2018-07-22T05:32:35.701Z,86.85
2018-07-22T05:33:35.770Z,86.83
2018-07-22T05:34:35.646Z,87
2018-07-22T05:35:35.669Z,86.76
2018-07-22T05:36:35.737Z,86.79
2018-07-22T05:37:35.735Z,87.16
2018-07-22T05:38:35.678Z,86.82
2018-07-22T05:39:35.692Z,86.72
2018-07-22T05:40:35.709Z,86.54
2018-07-22T05:41:35.705Z,86.12
2018-07-22T05:42:35.686Z,85.97
2018-07-22T05:43:35.686Z,86.73
2018-07-22T05:44:35.724Z,86.95
2018-07-22T05:45:35.679Z,86.96
2018-07-22T05:46:35.690Z,87.1
2018-07-22T05:47:35.732Z,86.78
2018-07-22T05:48:35.697Z,86.43
2018-07-22T05:49:35.657Z,86.2
2018-07-22T05:50:35.666Z,86.31
2018-07-22T05:51:35.683Z,86.42
2018-07-22T05:52:35.683Z,86.67
2018-07-22T05:53:35.730Z,86.76
2018-07-22T05:54:35.690Z,86.24
2018-07-22T05:55:35.701Z,86.33
2018-07-22T05:56:35.829Z,85.83
2018-07-22T05:57:35.720Z,85.99
2018-07-22T05:58:35.722Z,85.99
2018-07-22T05:59:35.683Z,85.74
2018-07-22T06:00:35.694Z,85.81
2018-07-22T06:01:35.719Z,85.49
2018-07-22T06:02:35.717Z,85.9
2018-07-22T06:03:35.682Z,85.72
2018-07-22T06:04:35.688Z,85.61
2018-07-22T06:05:35.751Z,86.34
2018-07-22T06:06:35.776Z,86.56
2018-07-22T06:07:35.729Z,86.24
2018-07-22T06:08:35.912Z,86.23
2018-07-22T06:09:35.889Z,86.5
2018-07-22T06:10:35.698Z,86.29
2018-07-22T06:11:35.747Z,85.95
2018-07-22T06:12:35.681Z,85.83
2018-07-22T06:13:35.723Z,85.96
2018-07-22T06:14:35.734Z,85.66
2018-07-22T06:15:35.769Z,85.56
2018-07-22T06:16:35.780Z,85.5
2018-07-22T06:17:35.799Z,85.39
2018-07-22T06:18:35.755Z,85.38
2018-07-22T06:19:35.709Z,85.12
2018-07-22T06:20:35.699Z,85
2018-07-22T06:21:35.741Z,84.92
2018-07-22T06:22:35.861Z,85.4
2018-07-22T06:23:35.702Z,85.53
2018-07-22T06:24:35.704Z,85.06
2018-07-22T06:25:35.901Z,84.88
2018-07-22T06:26:35.715Z,85.13
2018-07-22T06:27:35.800Z,85.58
2018-07-22T06:28:35.778Z,85.04
2018-07-22T06:29:35.777Z,84.77
2018-07-22T06:30:35.890Z,84.01
2018-07-22T06:31:35.781Z,83.58
2018-07-22T06:32:36.144Z,83.77
2018-07-22T06:33:35.735Z,83.23
2018-07-22T06:34:35.873Z,83.23
2018-07-22T06:35:35.771Z,83.18
2018-07-22T06:36:35.683Z,83.08
2018-07-22T06:37:35.744Z,83.18
2018-07-22T06:38:35.862Z,83.43
2018-07-22T06:39:35.777Z,83.61
2018-07-22T06:40:35.827Z,83.14
2018-07-22T06:41:35.707Z,83.23
2018-07-22T06:42:35.731Z,83.18
2018-07-22T06:43:35.885Z,83.37
2018-07-22T06:44:35.870Z,83.78
2018-07-22T06:45:35.726Z,83.6
2018-07-22T06:46:35.984Z,83.76
2018-07-22T06:47:35.813Z,83.69
2018-07-22T06:48:35.719Z,83.36
2018-07-22T06:49:36.834Z,83.36
2018-07-22T06:50:35.742Z,83.42
2018-07-22T06:51:35.732Z,83.67
2018-07-22T06:52:35.731Z,83
2018-07-22T06:53:36.053Z,82.93
2018-07-22T06:54:35.736Z,82.37
2018-07-22T06:55:35.739Z,82.98
2018-07-22T06:56:35.710Z,82.41
2018-07-22T06:57:35.810Z,82.45
2018-07-22T06:58:35.735Z,81.73
2018-07-22T06:59:36.013Z,81.99
2018-07-22T07:00:35.766Z,81.02
2018-07-22T07:01:35.718Z,80.85
2018-07-22T07:02:35.723Z,81.1
2018-07-22T07:03:35.734Z,81.19
2018-07-22T07:04:35.737Z,80.88
2018-07-22T07:05:35.866Z,80.82
2018-07-22T07:06:35.744Z,80.58
2018-07-22T07:07:35.790Z,80.06
2018-07-22T07:08:36.150Z,80.65
2018-07-22T07:09:35.733Z,80.79
2018-07-22T07:10:35.775Z,80.43
2018-07-22T07:11:35.722Z,80.82
2018-07-22T07:12:35.759Z,81.52
2018-07-22T07:13:35.760Z,81.62
2018-07-22T07:14:35.748Z,81.78
2018-07-22T07:15:35.773Z,81.45
2018-07-22T07:16:35.748Z,81.62
2018-07-22T07:17:35.751Z,81.69
2018-07-22T07:18:35.795Z,81.39
2018-07-22T07:19:35.828Z,81.16
2018-07-22T07:20:35.769Z,80.75
2018-07-22T07:21:35.730Z,81.19
2018-07-22T07:22:35.758Z,81.19
2018-07-22T07:23:35.755Z,80.46
2018-07-22T07:24:35.802Z,79.71
2018-07-22T07:25:35.782Z,79.79
2018-07-22T07:26:35.988Z,79.83
2018-07-22T07:27:35.827Z,79.73
2018-07-22T07:28:35.772Z,79.62
2018-07-22T07:29:35.907Z,79.33
2018-07-22T07:30:35.857Z,79.35
2018-07-22T07:31:35.799Z,79.23
2018-07-22T07:32:35.909Z,79.67
2018-07-22T07:33:36.065Z,79.37
2018-07-22T07:34:36.005Z,79.91
2018-07-22T07:35:35.790Z,79.95
2018-07-22T07:36:35.755Z,80.07
2018-07-22T07:37:35.766Z,80.2
2018-07-22T07:38:35.787Z,79.74
2018-07-22T07:39:35.984Z,80.15
2018-07-22T07:40:35.758Z,80.23
2018-07-22T07:41:35.759Z,80.05
2018-07-22T07:42:35.786Z,80.09
2018-07-22T07:43:35.922Z,80.01
2018-07-22T07:44:35.863Z,79.71
2018-07-22T07:45:35.886Z,79.7
2018-07-22T07:46:35.757Z,79.42
2018-07-22T07:47:35.780Z,79.7
2018-07-22T07:48:35.793Z,79.56
2018-07-22T07:49:36.072Z,79.63
2018-07-22T07:50:35.749Z,79.5
2018-07-22T07:51:35.850Z,79.48
2018-07-22T07:52:35.798Z,79.51
2018-07-22T07:53:35.811Z,79.17
2018-07-22T07:54:35.769Z,78.96
2018-07-22T07:55:35.825Z,79.04
2018-07-22T07:56:35.962Z,79.09
2018-07-22T07:57:35.766Z,79.36
2018-07-22T07:58:35.776Z,79.1
2018-07-22T07:59:35.828Z,79.08
2018-07-22T08:00:35.776Z,79.39
2018-07-22T08:01:35.832Z,79.07
2018-07-22T08:02:35.902Z,78.16
2018-07-22T08:03:35.799Z,78.56
2018-07-22T08:04:35.800Z,78.58
2018-07-22T08:05:36.403Z,78.34
2018-07-22T08:06:35.845Z,78.34
2018-07-22T08:07:35.865Z,78.67
2018-07-22T08:08:35.775Z,78.53
2018-07-22T08:09:35.812Z,78.55
2018-07-22T08:10:35.788Z,78.7
2018-07-22T08:11:35.955Z,78.67
2018-07-22T08:12:35.971Z,78.68
2018-07-22T08:13:35.917Z,78.41
2018-07-22T08:14:36.001Z,78.44
2018-07-22T08:15:35.785Z,78.23
2018-07-22T08:16:35.845Z,78.37
2018-07-22T08:17:35.792Z,78.14
2018-07-22T08:18:35.808Z,78.04
2018-07-22T08:19:36.492Z,78.27
2018-07-22T08:20:35.819Z,78.41
2018-07-22T08:21:36.294Z,78.2
2018-07-22T08:22:35.774Z,78.11
2018-07-22T08:23:35.781Z,78.23
2018-07-22T08:24:35.822Z,78.19
2018-07-22T08:25:35.783Z,77.58
2018-07-22T08:26:35.958Z,77.35
2018-07-22T08:27:35.819Z,77.32
2018-07-22T08:28:35.809Z,77.53
2018-07-22T08:29:35.799Z,77.26
2018-07-22T08:30:36.069Z,77.2
2018-07-22T08:31:35.885Z,77.18
2018-07-22T08:32:35.819Z,76.62
2018-07-22T08:33:35.810Z,76.23
2018-07-22T08:34:35.848Z,76.96
2018-07-22T08:35:35.853Z,75.87
2018-07-22T08:36:38.702Z,76.77
2018-07-22T08:37:36.647Z,76.51
2018-07-22T08:38:35.976Z,76.55
2018-07-22T08:39:35.898Z,76.06
2018-07-22T08:40:35.840Z,75.95
2018-07-22T08:41:36.230Z,75.37
2018-07-22T08:42:35.972Z,75.82
2018-07-22T08:43:35.871Z,75.25
2018-07-22T08:44:35.915Z,75.28
2018-07-22T08:45:35.836Z,75.1
2018-07-22T08:46:35.850Z,75.18
2018-07-22T08:47:36.292Z,75.1
2018-07-22T08:48:35.806Z,75.41
2018-07-22T08:49:35.840Z,75.43
2018-07-22T08:50:35.988Z,75.32
2018-07-22T08:51:36.097Z,74.92
2018-07-22T08:52:35.990Z,75.23
2018-07-22T08:53:35.803Z,74.93
2018-07-22T08:54:35.845Z,74.81
2018-07-22T08:55:35.864Z,74.51
2018-07-22T08:56:35.852Z,74.31
2018-07-22T08:57:35.901Z,74.65
2018-07-22T08:58:35.844Z,74.18
2018-07-22T08:59:36.158Z,74.26
2018-07-22T09:00:35.886Z,74.29
2018-07-22T09:01:35.893Z,74.61
2018-07-22T09:02:36.661Z,74.1
2018-07-22T09:03:35.878Z,73.67
2018-07-22T09:04:35.850Z,73.81
2018-07-22T09:05:36.570Z,73.94
2018-07-22T09:06:35.849Z,73.43
2018-07-22T09:07:35.839Z,74.14
2018-07-22T09:08:35.897Z,73.62
2018-07-22T09:09:35.808Z,73.69
2018-07-22T09:10:36.011Z,74.09
2018-07-22T09:11:36.121Z,73.8
2018-07-22T09:12:35.863Z,74.2
2018-07-22T09:13:35.840Z,72.96
2018-07-22T09:14:35.839Z,73.35
2018-07-22T09:15:35.918Z,72.77
2018-07-22T09:16:35.860Z,72.05
2018-07-22T09:17:36.022Z,72.05
2018-07-22T09:18:35.822Z,72.17
2018-07-22T09:19:35.865Z,71.66
2018-07-22T09:20:35.882Z,71.65
2018-07-22T09:21:35.893Z,72.38
2018-07-22T09:22:35.962Z,72.41
2018-07-22T09:23:35.887Z,72.87
2018-07-22T09:24:35.840Z,72.89
2018-07-22T09:25:35.850Z,72.27
2018-07-22T09:26:36.006Z,72.33
2018-07-22T09:27:35.986Z,72.68
2018-07-22T09:28:35.835Z,72.76
2018-07-22T09:29:35.827Z,73.16
2018-07-22T09:30:36.022Z,72.87
2018-07-22T09:31:35.848Z,72.51
2018-07-22T09:32:36.181Z,71.14
2018-07-22T09:33:35.848Z,71.18
2018-07-22T09:34:36.221Z,71.35
2018-07-22T09:35:35.826Z,71.2
2018-07-22T09:36:36.472Z,71.57
2018-07-22T09:37:36.001Z,71.6
2018-07-22T09:38:36.087Z,71.6
2018-07-22T09:39:35.864Z,71.56
2018-07-22T09:40:36.052Z,71.96
2018-07-22T09:41:35.847Z,70.74
2018-07-22T09:42:36.015Z,71.35
2018-07-22T09:43:35.906Z,71.46
2018-07-22T09:44:35.990Z,71.52
2018-07-22T09:45:35.961Z,71.68
2018-07-22T09:46:35.971Z,71.17
2018-07-22T09:47:36.033Z,71.28
2018-07-22T09:48:36.043Z,71.67
2018-07-22T09:49:35.929Z,71.8
2018-07-22T09:50:35.957Z,72.09
2018-07-22T09:51:35.851Z,71.81
2018-07-22T09:52:36.006Z,71.3
2018-07-22T09:53:36.104Z,71.77
2018-07-22T09:54:35.895Z,71.31
2018-07-22T09:55:35.961Z,71.01
2018-07-22T09:56:36.192Z,70.79
2018-07-22T09:57:36.076Z,70.32
2018-07-22T09:58:36.461Z,70.67
2018-07-22T09:59:35.957Z,70.61
2018-07-22T10:00:36.063Z,70.57
2018-07-22T10:01:36.075Z,70.5
2018-07-22T10:02:36.072Z,70.18
2018-07-22T10:03:36.085Z,70.2
2018-07-22T10:04:36.396Z,70.35
2018-07-22T10:05:36.133Z,70.72
2018-07-22T10:06:39.683Z,70.3
2018-07-22T10:07:37.132Z,70.53
2018-07-22T10:08:36.016Z,70.82
2018-07-22T10:09:36.127Z,71.09
2018-07-22T10:10:36.146Z,70.5
2018-07-22T10:11:37.238Z,70.18
2018-07-22T10:12:36.214Z,70.65
2018-07-22T10:13:36.126Z,70.55
2018-07-22T10:14:36.388Z,71.02
2018-07-22T10:15:35.856Z,70.86
2018-07-22T10:16:35.864Z,70.88
2018-07-22T10:17:36.165Z,70.1
2018-07-22T10:18:35.898Z,69.68
2018-07-22T10:19:35.986Z,69.75
2018-07-22T10:20:36.099Z,69.27
2018-07-22T10:21:35.903Z,69.13
2018-07-22T10:22:35.851Z,68.26
2018-07-22T10:23:35.948Z,68.77
2018-07-22T10:24:35.892Z,68.64
2018-07-22T10:25:35.884Z,69.3
2018-07-22T10:26:35.924Z,69.03
2018-07-22T10:27:35.872Z,68.32
2018-07-22T10:28:36.142Z,69.43
2018-07-22T10:29:35.938Z,68.2
2018-07-22T10:30:35.908Z,67.97
2018-07-22T10:31:35.904Z,67.95
2018-07-22T10:32:35.991Z,67.76
2018-07-22T10:33:35.946Z,68.01
2018-07-22T10:34:36.102Z,67.75
2018-07-22T10:35:35.997Z,67.85
2018-07-22T10:36:36.155Z,67.9
2018-07-22T10:37:35.922Z,66.99
2018-07-22T10:38:35.955Z,67.62
2018-07-22T10:39:35.919Z,67.29
2018-07-22T10:40:36.047Z,67
2018-07-22T10:41:35.973Z,66.29
2018-07-22T10:42:36.696Z,66.37
2018-07-22T10:43:35.919Z,66.1
2018-07-22T10:44:35.992Z,66.57
2018-07-22T10:45:35.891Z,66.65
2018-07-22T10:46:36.015Z,65.38
2018-07-22T10:47:36.029Z,66.35
2018-07-22T10:48:35.960Z,65.7
2018-07-22T10:49:36.078Z,66.21
2018-07-22T10:50:36.151Z,66.77
2018-07-22T10:51:36.010Z,65.91
2018-07-22T10:52:36.018Z,66.42
2018-07-22T10:53:35.885Z,66.3
2018-07-22T10:54:36.043Z,66.46
2018-07-22T10:55:36.046Z,67.26
2018-07-22T10:56:36.046Z,66.2
2018-07-22T10:57:36.149Z,65.84
2018-07-22T10:58:35.970Z,66.66
2018-07-22T10:59:35.950Z,65.73
2018-07-22T11:00:36.066Z,66.02
2018-07-22T11:01:36.008Z,65.51
2018-07-22T11:02:36.129Z,65.18
2018-07-22T11:03:36.135Z,65.27
2018-07-22T11:04:36.032Z,64.97
2018-07-22T11:05:35.992Z,65.1
2018-07-22T11:06:36.042Z,64.15
2018-07-22T11:07:36.070Z,64.91
2018-07-22T11:08:35.971Z,64.5
2018-07-22T11:09:35.978Z,64.16
2018-07-22T11:10:35.981Z,64.41
2018-07-22T11:11:36.224Z,64.51
2018-07-22T11:12:36.021Z,65.08
2018-07-22T11:13:35.989Z,64.35
2018-07-22T11:14:36.313Z,63.77
2018-07-22T11:15:36.017Z,64.42
2018-07-22T11:16:36.765Z,63.66
2018-07-22T11:17:35.955Z,64.33
2018-07-22T11:18:36.205Z,64.21
2018-07-22T11:19:36.140Z,63.97
2018-07-22T11:20:36.218Z,63.45
2018-07-22T11:21:36.072Z,63.62
2018-07-22T11:22:36.069Z,62.91
2018-07-22T11:23:36.701Z,62.94
2018-07-22T11:24:35.981Z,62.73
2018-07-22T11:25:36.702Z,61.25
2018-07-22T11:26:36.090Z,61.86
2018-07-22T11:27:36.103Z,62.69
2018-07-22T11:28:39.463Z,62.75
2018-07-22T11:29:35.953Z,62.7
2018-07-22T11:30:36.034Z,61.71
2018-07-22T11:31:36.079Z,62.13
2018-07-22T11:32:36.000Z,62.01
2018-07-22T11:33:37.089Z,62.57
2018-07-22T11:34:35.979Z,62.55
2018-07-22T11:35:36.074Z,62.3
2018-07-22T11:36:35.961Z,61.53
2018-07-22T11:37:35.930Z,62.19
2018-07-22T11:38:36.120Z,62.01
2018-07-22T11:39:35.934Z,62.1
2018-07-22T11:40:35.953Z,61.42
2018-07-22T11:41:36.047Z,62.25
2018-07-22T11:42:36.057Z,61.47
2018-07-22T11:43:36.048Z,61.34
2018-07-22T11:44:35.998Z,60.33
2018-07-22T11:45:35.943Z,61.81
2018-07-22T11:46:35.951Z,62.37
2018-07-22T11:47:36.016Z,62.06
2018-07-22T11:48:35.973Z,61.15
2018-07-22T11:49:36.334Z,60.68
2018-07-22T11:50:36.245Z,60.04
2018-07-22T11:51:36.105Z,60.35
2018-07-22T11:52:36.053Z,60.31
2018-07-22T11:53:35.947Z,60.14
2018-07-22T11:54:36.001Z,60.25
2018-07-22T11:55:36.118Z,59.68
2018-07-22T11:56:36.070Z,60.4
2018-07-22T11:57:36.070Z,60.18
2018-07-22T11:58:36.216Z,60.27
2018-07-22T11:59:35.938Z,60.86
2018-07-22T12:00:35.953Z,60.25
2018-07-22T12:01:36.072Z,60.12
2018-07-22T12:02:36.359Z,59.34
2018-07-22T12:03:35.988Z,59.1
2018-07-22T12:04:36.146Z,58.86
2018-07-22T12:05:36.001Z,59.58
2018-07-22T12:06:35.983Z,59.95
2018-07-22T12:07:36.215Z,60.56
2018-07-22T12:08:36.205Z,60.52
2018-07-22T12:09:36.169Z,59.94
2018-07-22T12:10:36.057Z,59.69
2018-07-22T12:11:36.007Z,60.26
2018-07-22T12:12:36.440Z,60.95
2018-07-22T12:13:36.105Z,60.31
2018-07-22T12:14:35.965Z,60.45
2018-07-22T12:15:36.157Z,59.98
2018-07-22T12:16:36.906Z,59.61
2018-07-22T12:17:36.133Z,60.09
2018-07-22T12:18:35.970Z,59.08
2018-07-22T12:19:36.023Z,59.25
2018-07-22T12:20:35.990Z,58.48
2018-07-22T12:21:36.080Z,58.79
2018-07-22T12:22:35.997Z,58.89
2018-07-22T12:23:36.357Z,58.7
2018-07-22T12:24:35.992Z,58.91
2018-07-22T12:25:36.070Z,58.2
2018-07-22T12:26:36.062Z,58.43
2018-07-22T12:27:36.753Z,57.99
2018-07-22T12:28:36.029Z,57.66
2018-07-22T12:29:36.125Z,57.9
2018-07-22T12:30:36.683Z,57.25
2018-07-22T12:31:36.081Z,57.43
2018-07-22T12:32:36.009Z,57.72
2018-07-22T12:33:36.017Z,57.86
2018-07-22T12:34:36.067Z,58.27
2018-07-22T12:35:36.163Z,57.98
2018-07-22T12:36:36.167Z,58.43
2018-07-22T12:37:36.066Z,58.4
2018-07-22T12:38:36.027Z,57.9
2018-07-22T12:39:35.989Z,57.73
2018-07-22T12:40:36.742Z,57.74
2018-07-22T12:41:36.013Z,57.9
2018-07-22T12:42:36.007Z,58.01
2018-07-22T12:43:36.074Z,58.51
2018-07-22T12:44:36.184Z,59.1
2018-07-22T12:45:36.105Z,60.36
2018-07-22T12:46:36.707Z,62.21
2018-07-22T12:47:37.200Z,62.94
2018-07-22T12:48:36.019Z,64.26
2018-07-22T12:49:36.119Z,65.94
2018-07-22T12:50:36.039Z,66.38
2018-07-22T12:51:35.979Z,66.37
2018-07-22T12:52:36.039Z,67.59
2018-07-22T12:53:36.165Z,67.64
2018-07-22T12:54:36.912Z,68.62
2018-07-22T12:55:36.012Z,70.46
2018-07-22T12:56:36.276Z,69.16